createdAt,value
2023-01-18T00:04:43.252Z,3.76
2023-01-18T00:09:35.306Z,3.56
2023-01-18T00:14:25.849Z,3.62
2023-01-18T00:19:19.052Z,3.54
2023-01-18T00:24:12.319Z,3.44
2023-01-18T00:29:05.895Z,2.90
2023-01-18T00:34:00.527Z,2.74
2023-01-18T00:39:01.984Z,3.23
2023-01-18T00:43:53.617Z,2.87
2023-01-18T00:48:48.649Z,2.64
2023-01-18T00:53:41.490Z,2.59
2023-01-18T00:58:35.274Z,2.62
2023-01-18T01:03:25.769Z,2.57
2023-01-18T01:08:21.126Z,2.77
2023-01-18T01:13:26.868Z,2.51
2023-01-18T01:18:35.873Z,2.41
2023-01-18T01:23:41.780Z,3.03
2023-01-18T01:28:35.353Z,2.43
2023-01-18T01:33:27.928Z,2.38
2023-01-18T01:38:18.926Z,2.36
2023-01-18T01:43:17.772Z,2.60
2023-01-18T01:48:11.778Z,2.50
2023-01-18T01:53:07.415Z,2.20
2023-01-18T01:58:04.556Z,2.33
2023-01-18T02:02:59.991Z,2.61
2023-01-18T02:07:52.850Z,2.27
2023-01-18T02:12:50.363Z,2.26
2023-01-18T02:18:08.698Z,2.19
2023-01-18T02:23:35.673Z,2.60
2023-01-18T02:28:38.761Z,2.17
2023-01-18T02:33:37.025Z,2.03
2023-01-18T02:38:34.037Z,2.09
2023-01-18T02:43:42.845Z,2.05
2023-01-18T02:48:39.323Z,2.09
2023-01-18T02:53:31.350Z,2.07
2023-01-18T02:58:26.172Z,2.03
2023-01-18T03:03:23.186Z,1.99
2023-01-18T03:08:22.458Z,1.96
2023-01-18T03:13:20.756Z,1.94
2023-01-18T03:18:19.268Z,1.97
2023-01-18T03:23:32.153Z,2.23
2023-01-18T03:28:39.261Z,2.44
2023-01-18T03:33:49.502Z,2.43
2023-01-18T03:38:45.911Z,2.46
2023-01-18T03:43:41.280Z,2.54
2023-01-18T03:48:43.847Z,2.53
2023-01-18T03:53:54.778Z,2.56
2023-01-18T03:58:55.829Z,2.60
2023-01-18T04:03:48.210Z,2.57
2023-01-18T04:08:45.145Z,2.79
2023-01-18T04:13:39.717Z,2.83
2023-01-18T04:18:32.775Z,2.79
2023-01-18T04:23:24.406Z,2.84
2023-01-18T04:28:14.419Z,2.77
2023-01-18T04:33:04.770Z,2.80
2023-01-18T04:38:01.959Z,2.83
2023-01-18T04:42:58.765Z,2.82
2023-01-18T04:47:52.795Z,2.80
2023-01-18T04:52:50.079Z,2.78
2023-01-18T04:57:47.807Z,2.84
2023-01-18T05:02:41.391Z,2.81
2023-01-18T05:07:34.383Z,2.78
2023-01-18T05:12:24.214Z,2.63
2023-01-18T05:17:16.904Z,2.70
2023-01-18T05:22:09.316Z,2.72
2023-01-18T05:27:01.391Z,2.81
2023-01-18T05:31:55.042Z,2.75
2023-01-18T05:36:52.185Z,2.78
2023-01-18T05:41:45.498Z,2.76
2023-01-18T05:46:36.940Z,2.22
2023-01-18T05:51:34.850Z,2.31
2023-01-18T05:56:46.388Z,2.36
2023-01-18T06:01:36.506Z,2.42
2023-01-18T06:06:40.488Z,2.92
2023-01-18T06:11:35.887Z,2.95
2023-01-18T06:16:56.604Z,2.85
2023-01-18T06:21:48.792Z,3.01
2023-01-18T06:26:38.662Z,2.96
2023-01-18T06:31:29.826Z,2.96
2023-01-18T06:36:31.973Z,3.15
2023-01-18T06:41:34.058Z,3.17
2023-01-18T06:46:29.684Z,3.21
2023-01-18T06:51:26.875Z,3.31
2023-01-18T06:56:26.377Z,3.36
2023-01-18T07:01:21.885Z,3.35
2023-01-18T07:06:11.926Z,3.28
2023-01-18T07:11:15.499Z,3.36
2023-01-18T07:16:07.865Z,3.46
2023-01-18T07:21:14.347Z,3.44
2023-01-18T07:26:20.870Z,3.48
2023-01-18T07:31:12.344Z,3.40
2023-01-18T07:36:02.257Z,3.40
2023-01-18T07:40:52.675Z,3.38
2023-01-18T07:45:46.372Z,3.40
2023-01-18T07:50:44.377Z,3.45
2023-01-18T07:55:49.355Z,3.42
2023-01-18T08:00:41.822Z,3.41
2023-01-18T08:05:45.535Z,3.59
2023-01-18T08:10:41.335Z,3.44
2023-01-18T08:15:42.052Z,3.49
2023-01-18T08:20:47.106Z,3.53
2023-01-18T08:25:41.878Z,3.52
2023-01-18T08:30:36.905Z,3.57
2023-01-18T08:35:33.815Z,2.68
2023-01-18T08:40:33.955Z,2.81
2023-01-18T08:45:27.080Z,3.60
2023-01-18T08:50:20.957Z,3.71
2023-01-18T08:55:18.697Z,3.78
2023-01-18T09:00:30.368Z,3.90
2023-01-18T09:05:25.223Z,3.98
2023-01-18T09:10:17.176Z,4.31
2023-01-18T09:15:15.190Z,4.16
2023-01-18T09:20:09.724Z,4.15
2023-01-18T09:25:00.892Z,4.34
2023-01-18T09:29:58.954Z,4.49
2023-01-18T09:34:53.235Z,4.65
2023-01-18T09:39:51.929Z,4.78
2023-01-18T09:44:48.729Z,4.88
2023-01-18T09:49:55.514Z,4.99
2023-01-18T09:54:55.823Z,5.13
2023-01-18T09:59:51.997Z,5.82
2023-01-18T10:04:46.564Z,6.31
2023-01-18T10:09:37.912Z,6.54
2023-01-18T10:14:39.309Z,7.26
2023-01-18T10:19:35.531Z,7.72
2023-01-18T10:24:38.040Z,8.36
2023-01-18T10:29:37.858Z,8.70
2023-01-18T10:35:03.886Z,9.12
2023-01-18T10:39:56.248Z,8.76
2023-01-18T10:44:51.419Z,8.67
2023-01-18T10:49:45.290Z,8.48
2023-01-18T10:54:40.582Z,8.46
2023-01-18T10:59:38.489Z,8.73
2023-01-18T11:04:32.052Z,8.78
2023-01-18T11:09:40.843Z,8.90
2023-01-18T11:14:35.369Z,9.01
2023-01-18T11:19:29.505Z,8.80
2023-01-18T11:24:30.396Z,8.87
2023-01-18T11:29:25.716Z,8.99
2023-01-18T11:34:29.027Z,8.85
2023-01-18T11:39:33.213Z,8.80
2023-01-18T11:44:27.949Z,9.02
2023-01-18T11:49:30.720Z,8.90
2023-01-18T11:54:29.000Z,8.98
2023-01-18T11:59:31.838Z,8.81
2023-01-18T12:04:40.441Z,8.73
2023-01-18T12:09:43.980Z,8.95
2023-01-18T12:14:53.083Z,9.18
2023-01-18T12:20:00.997Z,8.40
2023-01-18T12:24:59.975Z,8.50
2023-01-18T12:30:15.843Z,8.67
2023-01-18T12:35:25.115Z,8.59
2023-01-18T12:40:35.538Z,8.49
2023-01-18T12:45:54.222Z,8.49
2023-01-18T12:50:57.106Z,8.55
2023-01-18T12:55:57.010Z,8.21
2023-01-18T13:01:06.030Z,8.33
2023-01-18T13:06:15.702Z,7.85
2023-01-18T13:11:10.169Z,7.94
2023-01-18T13:16:18.191Z,7.89
2023-01-18T13:21:32.650Z,7.92
2023-01-18T13:26:34.228Z,7.99
2023-01-18T13:31:55.462Z,8.14
2023-01-18T13:37:15.032Z,8.33
2023-01-18T13:42:11.923Z,8.39
2023-01-18T13:47:34.125Z,8.18
2023-01-18T13:52:44.196Z,8.12
2023-01-18T13:57:37.833Z,7.98
2023-01-18T14:02:35.028Z,8.03
2023-01-18T14:07:28.228Z,8.00
2023-01-18T14:12:45.652Z,8.19
2023-01-18T14:17:53.434Z,8.40
2023-01-18T14:22:57.238Z,8.40
2023-01-18T14:27:59.648Z,7.79
2023-01-18T14:32:59.656Z,7.74
2023-01-18T14:38:16.901Z,7.67
2023-01-18T14:43:18.275Z,7.66
2023-01-18T14:48:23.517Z,7.55
2023-01-18T14:53:19.069Z,7.53
2023-01-18T14:58:26.895Z,7.52
2023-01-18T15:03:24.076Z,7.45
2023-01-18T15:08:18.180Z,7.37
2023-01-18T15:13:09.855Z,8.14
2023-01-18T15:18:15.339Z,8.22
2023-01-18T15:23:08.693Z,8.25
2023-01-18T15:28:11.901Z,8.32
2023-01-18T15:33:15.317Z,7.64
2023-01-18T15:38:05.256Z,7.60
2023-01-18T15:43:05.000Z,7.55
2023-01-18T15:48:07.890Z,7.47
2023-01-18T15:53:19.319Z,7.60
2023-01-18T15:58:16.601Z,7.55
2023-01-18T16:03:23.863Z,7.66
2023-01-18T16:08:24.020Z,7.63
2023-01-18T16:13:34.547Z,7.69
2023-01-18T16:19:48.504Z,7.66
2023-01-18T16:24:41.055Z,7.57
2023-01-18T16:29:33.377Z,7.52
2023-01-18T16:34:24.881Z,7.60
2023-01-18T16:39:20.548Z,7.69
2023-01-18T16:44:13.847Z,8.24
2023-01-18T16:49:11.287Z,8.30
2023-01-18T16:54:01.729Z,8.22
2023-01-18T16:58:56.129Z,7.61
2023-01-18T17:03:47.210Z,7.63
2023-01-18T17:08:39.838Z,8.12
2023-01-18T17:13:30.925Z,7.67
2023-01-18T17:18:29.334Z,8.08
2023-01-18T17:23:22.326Z,8.19
2023-01-18T17:28:19.147Z,8.31
2023-01-18T17:33:16.191Z,8.27
2023-01-18T17:38:22.076Z,7.58
2023-01-18T17:43:17.277Z,7.96
2023-01-18T17:48:12.721Z,7.95
2023-01-18T17:53:08.842Z,8.05
2023-01-18T17:58:00.292Z,8.05
2023-01-18T18:02:54.209Z,7.83
2023-01-18T18:07:45.463Z,7.90
2023-01-18T18:12:40.676Z,7.99
2023-01-18T18:17:32.355Z,8.02
2023-01-18T18:22:23.331Z,7.88
2023-01-18T18:27:17.548Z,8.11
2023-01-18T18:32:12.328Z,8.13
2023-01-18T18:37:04.252Z,7.45
2023-01-18T18:41:54.958Z,7.44
2023-01-18T18:46:46.194Z,7.23
2023-01-18T18:51:39.443Z,7.02
2023-01-18T18:56:29.379Z,7.04
2023-01-18T19:01:22.876Z,7.02
2023-01-18T19:06:13.772Z,6.87
2023-01-18T19:11:08.860Z,6.91
2023-01-18T19:16:01.836Z,6.83
2023-01-18T19:20:53.575Z,6.68
2023-01-18T19:25:47.424Z,6.74
2023-01-18T19:30:44.219Z,6.74
2023-01-18T19:35:36.383Z,6.78
2023-01-18T19:40:36.682Z,6.77
2023-01-18T19:45:35.342Z,6.97
2023-01-18T19:50:33.050Z,6.81
2023-01-18T19:55:23.438Z,6.94
2023-01-18T20:00:19.434Z,6.78
2023-01-18T20:05:11.346Z,6.70
2023-01-18T20:10:21.035Z,6.62
2023-01-18T20:15:12.222Z,6.63
2023-01-18T20:20:03.682Z,6.96
2023-01-18T20:24:57.493Z,7.02
2023-01-18T20:29:55.857Z,6.66
2023-01-18T20:34:47.400Z,6.35
2023-01-18T20:39:38.387Z,6.52
2023-01-18T20:44:32.524Z,6.56
2023-01-18T20:49:38.032Z,6.54
2023-01-18T20:54:34.781Z,6.62
2023-01-18T20:59:26.548Z,6.55
2023-01-18T21:04:21.540Z,7.15
2023-01-18T21:09:16.580Z,7.22
2023-01-18T21:14:11.227Z,7.28
2023-01-18T21:19:13.795Z,7.31
2023-01-18T21:24:04.409Z,7.20
2023-01-18T21:28:57.801Z,7.22
2023-01-18T21:33:48.747Z,7.24
2023-01-18T21:38:40.727Z,7.28
2023-01-18T21:43:44.077Z,7.37
2023-01-18T21:48:38.185Z,7.44
2023-01-18T21:53:40.780Z,7.25
2023-01-18T21:58:43.159Z,7.31
2023-01-18T22:03:34.036Z,6.77
2023-01-18T22:08:27.144Z,6.66
2023-01-18T22:13:17.851Z,7.02
2023-01-18T22:18:08.483Z,6.92
2023-01-18T22:22:59.136Z,7.40
2023-01-18T22:27:56.896Z,7.51
2023-01-18T22:32:50.135Z,7.51
2023-01-18T22:37:40.442Z,7.56
2023-01-18T22:42:32.382Z,7.49
2023-01-18T22:47:25.940Z,7.48
2023-01-18T22:52:15.849Z,7.51
2023-01-18T22:57:08.352Z,7.50
2023-01-18T23:01:58.235Z,7.33
2023-01-18T23:06:55.556Z,7.43
2023-01-18T23:11:46.142Z,7.58
2023-01-18T23:16:48.505Z,7.58
2023-01-18T23:21:39.620Z,7.69
2023-01-18T23:26:34.001Z,7.65
2023-01-18T23:31:25.486Z,7.50
2023-01-18T23:36:16.228Z,7.57
2023-01-18T23:41:20.509Z,7.54
2023-01-18T23:46:25.920Z,7.58
2023-01-18T23:51:28.792Z,7.58
2023-01-18T23:56:19.874Z,7.56
